createdAt,value
2023-03-01T00:01:46.178Z,-3.16
2023-03-01T00:04:14.770Z,-3.15
2023-03-01T00:06:47.000Z,-3.12
2023-03-01T00:09:15.743Z,-3.12
2023-03-01T00:11:44.637Z,-3.10
2023-03-01T00:14:13.696Z,-3.13
2023-03-01T00:16:45.441Z,-3.14
2023-03-01T00:19:17.970Z,-3.24
2023-03-01T00:21:46.729Z,-3.20
2023-03-01T00:24:15.506Z,-3.18
2023-03-01T00:26:43.964Z,-3.26
2023-03-01T00:29:12.767Z,-3.32
2023-03-01T00:31:41.319Z,-3.24
2023-03-01T00:34:11.432Z,-3.21
2023-03-01T00:36:39.925Z,-3.27
2023-03-01T00:39:13.187Z,-3.25
2023-03-01T00:41:42.079Z,-3.26
2023-03-01T00:44:10.727Z,-3.34
2023-03-01T00:46:39.311Z,-3.28
2023-03-01T00:49:07.867Z,-3.37
2023-03-01T00:51:37.783Z,-3.38
2023-03-01T00:54:06.259Z,-3.42
2023-03-01T00:56:34.828Z,-3.36
2023-03-01T00:59:03.896Z,-3.34
2023-03-01T01:01:32.946Z,-3.35
2023-03-01T01:04:03.521Z,-3.28
2023-03-01T01:06:35.113Z,-3.30
2023-03-01T01:09:06.565Z,-3.24
2023-03-01T01:11:37.399Z,-3.25
2023-03-01T01:14:05.922Z,-3.21
2023-03-01T01:16:34.520Z,-3.21
2023-03-01T01:19:04.094Z,-3.09
2023-03-01T01:21:32.815Z,-2.79
2023-03-01T01:24:01.354Z,-2.73
2023-03-01T01:26:33.890Z,-2.49
2023-03-01T01:29:04.842Z,-2.40
2023-03-01T01:31:34.112Z,-2.34
2023-03-01T01:34:05.663Z,-2.36
2023-03-01T01:36:34.880Z,-2.33
2023-03-01T01:39:03.798Z,-2.22
2023-03-01T01:41:33.708Z,-2.27
2023-03-01T01:44:27.971Z,-2.07
2023-03-01T01:47:00.641Z,-2.02
2023-03-01T01:49:34.144Z,-1.91
2023-03-01T01:52:09.659Z,-1.86
2023-03-01T01:54:43.662Z,-1.80
2023-03-01T01:57:20.008Z,-1.82
2023-03-01T01:59:52.892Z,-1.72
2023-03-01T02:02:22.273Z,-1.69
2023-03-01T02:04:54.641Z,-1.64
2023-03-01T02:07:25.774Z,-1.62
2023-03-01T02:09:54.843Z,-1.55
2023-03-01T02:12:27.583Z,-1.50
2023-03-01T02:14:57.190Z,-1.49
2023-03-01T02:17:25.906Z,-1.45
2023-03-01T02:20:07.870Z,-1.53
2023-03-01T02:22:39.399Z,-1.44
2023-03-01T02:25:30.063Z,-1.37
2023-03-01T02:28:04.790Z,-1.36
2023-03-01T02:30:35.602Z,-1.37
2023-03-01T02:33:05.254Z,-1.32
2023-03-01T02:35:36.212Z,-1.30
2023-03-01T02:38:08.136Z,-1.27
2023-03-01T02:40:40.043Z,-1.26
2023-03-01T02:43:12.286Z,-1.22
2023-03-01T02:45:51.502Z,-1.24
2023-03-01T02:48:20.772Z,-1.19
2023-03-01T02:51:06.078Z,-1.17
2023-03-01T02:53:45.805Z,-1.16
2023-03-01T02:56:15.590Z,-1.12
2023-03-01T02:58:49.025Z,-1.13
2023-03-01T03:01:20.336Z,-1.12
2023-03-01T03:03:49.385Z,-1.14
2023-03-01T03:06:19.004Z,-1.09
2023-03-01T03:08:47.690Z,-1.13
2023-03-01T03:11:16.446Z,-1.19
2023-03-01T03:13:49.051Z,-1.18
2023-03-01T03:16:19.755Z,-1.14
2023-03-01T03:18:48.227Z,-1.16
2023-03-01T03:21:17.296Z,-1.14
2023-03-01T03:23:46.136Z,-1.10
2023-03-01T03:26:16.117Z,-1.10
2023-03-01T03:28:44.744Z,-1.07
2023-03-01T03:31:13.288Z,-1.08
2023-03-01T03:33:43.152Z,-1.05
2023-03-01T03:36:13.819Z,-1.04
2023-03-01T03:38:42.448Z,-1.02
2023-03-01T03:41:11.036Z,-1.05
2023-03-01T03:43:41.648Z,-1.03
2023-03-01T03:46:11.397Z,-1.03
2023-03-01T03:48:42.499Z,-1.06
2023-03-01T03:51:14.816Z,-1.01
2023-03-01T03:53:43.517Z,-1.02
2023-03-01T03:56:12.527Z,-0.99
2023-03-01T03:58:41.127Z,-0.99
2023-03-01T04:01:09.619Z,-1.03
2023-03-01T04:03:38.065Z,-1.02
2023-03-01T04:06:07.074Z,-1.05
2023-03-01T04:08:36.864Z,-1.03
2023-03-01T04:11:20.433Z,-1.04
2023-03-01T04:13:48.955Z,-1.04
2023-03-01T04:16:17.534Z,-1.03
2023-03-01T04:18:46.316Z,-1.04
2023-03-01T04:21:15.033Z,-1.06
2023-03-01T04:23:44.939Z,-1.06
2023-03-01T04:26:13.755Z,-1.05
2023-03-01T04:28:46.091Z,-1.03
2023-03-01T04:31:18.438Z,-1.11
2023-03-01T04:33:50.208Z,-1.10
2023-03-01T04:36:20.061Z,-1.06
2023-03-01T04:38:50.264Z,-1.04
2023-03-01T04:41:21.146Z,-1.01
2023-03-01T04:43:50.278Z,-1.02
2023-03-01T04:46:20.939Z,-1.03
2023-03-01T04:48:49.851Z,-1.01
2023-03-01T04:51:19.262Z,-1.02
2023-03-01T04:53:48.199Z,-0.93
2023-03-01T04:56:19.579Z,-0.98
2023-03-01T04:58:48.651Z,-1.00
2023-03-01T05:01:19.806Z,-0.94
2023-03-01T05:03:49.851Z,-0.92
2023-03-01T05:06:20.027Z,-0.96
2023-03-01T05:08:48.568Z,-0.96
2023-03-01T05:11:18.395Z,-0.99
2023-03-01T05:13:46.906Z,-0.99
2023-03-01T05:16:15.334Z,-0.95
2023-03-01T05:18:44.336Z,-0.95
2023-03-01T05:21:16.874Z,-0.92
2023-03-01T05:23:45.742Z,-0.91
2023-03-01T05:26:31.470Z,-0.92
2023-03-01T05:29:01.974Z,-0.94
2023-03-01T05:31:31.709Z,-0.98
2023-03-01T05:34:00.401Z,-1.01
2023-03-01T05:36:29.103Z,-1.09
2023-03-01T05:38:57.874Z,-1.15
2023-03-01T05:41:26.260Z,-1.19
2023-03-01T05:43:54.702Z,-1.18
2023-03-01T05:46:25.371Z,-1.22
2023-03-01T05:48:53.779Z,-1.28
2023-03-01T05:51:23.214Z,-1.31
2023-03-01T05:53:51.627Z,-1.32
2023-03-01T05:56:20.121Z,-1.36
2023-03-01T05:58:50.260Z,-1.37
2023-03-01T06:01:18.756Z,-1.42
2023-03-01T06:03:48.616Z,-1.42
2023-03-01T06:06:17.089Z,-1.46
2023-03-01T06:08:45.744Z,-1.48
2023-03-01T06:11:14.183Z,-1.50
2023-03-01T06:13:43.527Z,-1.52
2023-03-01T06:16:12.430Z,-1.53
2023-03-01T06:18:42.591Z,-1.52
2023-03-01T06:21:12.567Z,-1.60
2023-03-01T06:23:41.166Z,-1.57
2023-03-01T06:26:10.465Z,-1.56
2023-03-01T06:28:38.974Z,-1.61
2023-03-01T06:31:09.654Z,-1.62
2023-03-01T06:33:38.255Z,-1.59
2023-03-01T06:36:07.443Z,-1.58
2023-03-01T06:38:37.318Z,-1.60
2023-03-01T06:41:06.276Z,-1.56
2023-03-01T06:43:34.707Z,-1.58
2023-03-01T06:46:07.716Z,-1.55
2023-03-01T06:48:37.768Z,-1.56
2023-03-01T06:51:06.632Z,-1.54
2023-03-01T06:53:35.106Z,-1.55
2023-03-01T06:56:05.299Z,-1.46
2023-03-01T06:58:33.729Z,-1.43
2023-03-01T07:01:02.115Z,-1.37
2023-03-01T07:05:58.803Z,-1.31
2023-03-01T07:08:27.472Z,-1.31
2023-03-01T07:10:59.526Z,-1.30
2023-03-01T07:13:29.726Z,-1.22
2023-03-01T07:15:58.151Z,-1.19
2023-03-01T07:18:26.694Z,-1.08
2023-03-01T07:20:55.073Z,-1.07
2023-03-01T07:23:23.627Z,-1.00
2023-03-01T07:25:55.763Z,-1.01
2023-03-01T07:28:25.109Z,-1.01
2023-03-01T07:30:55.203Z,-0.94
2023-03-01T07:33:23.868Z,-0.89
2023-03-01T07:35:58.504Z,-0.77
2023-03-01T07:38:27.443Z,-0.65
2023-03-01T07:40:56.369Z,-0.58
2023-03-01T07:43:24.794Z,-0.54
2023-03-01T07:45:53.415Z,-0.41
2023-03-01T07:48:23.266Z,-0.22
2023-03-01T07:50:51.678Z,-0.28
2023-03-01T07:53:20.037Z,-0.10
2023-03-01T07:55:48.494Z,0.03
2023-03-01T07:58:16.998Z,0.11
2023-03-01T08:00:45.447Z,0.25
2023-03-01T08:03:13.874Z,0.28
2023-03-01T08:05:43.651Z,0.30
2023-03-01T08:08:12.178Z,0.54
2023-03-01T08:10:40.646Z,0.71
2023-03-01T08:13:09.059Z,0.74
2023-03-01T08:15:37.532Z,0.72
2023-03-01T08:18:07.459Z,0.92
2023-03-01T08:20:35.972Z,1.20
2023-03-01T08:23:05.783Z,1.37
2023-03-01T08:25:34.398Z,1.37
2023-03-01T08:28:02.876Z,1.60
2023-03-01T08:30:31.275Z,1.94
2023-03-01T08:32:59.853Z,2.08
2023-03-01T08:35:28.300Z,2.23
2023-03-01T08:37:56.773Z,2.51
2023-03-01T08:40:26.599Z,2.49
2023-03-01T08:42:55.086Z,2.76
2023-03-01T08:45:23.563Z,2.82
2023-03-01T08:47:54.521Z,3.00
2023-03-01T08:50:25.332Z,2.98
2023-03-01T08:52:53.764Z,2.91
2023-03-01T08:55:22.202Z,2.95
2023-03-01T08:57:51.961Z,3.04
2023-03-01T09:00:21.710Z,3.31
2023-03-01T09:02:50.142Z,3.21
2023-03-01T09:05:20.291Z,3.18
2023-03-01T09:07:48.891Z,3.50
2023-03-01T09:10:19.184Z,3.75
2023-03-01T09:12:47.656Z,3.83
2023-03-01T09:15:17.542Z,4.13
2023-03-01T09:17:45.974Z,3.86
2023-03-01T09:20:14.487Z,3.97
2023-03-01T09:22:42.887Z,4.17
2023-03-01T09:25:11.401Z,4.32
2023-03-01T09:27:39.998Z,4.41
2023-03-01T09:30:09.913Z,4.68
2023-03-01T09:32:43.617Z,4.74
2023-03-01T09:35:12.453Z,4.96
2023-03-01T09:37:45.491Z,5.03
2023-03-01T09:40:18.196Z,5.09
2023-03-01T09:42:54.950Z,5.15
2023-03-01T09:45:30.808Z,5.27
2023-03-01T09:48:02.460Z,5.28
2023-03-01T09:50:36.730Z,5.47
2023-03-01T09:53:08.740Z,5.84
2023-03-01T09:55:44.818Z,5.66
2023-03-01T09:58:44.076Z,5.95
2023-03-01T10:01:25.815Z,6.56
2023-03-01T10:04:11.642Z,6.82
2023-03-01T10:06:44.046Z,6.75
2023-03-01T10:09:16.037Z,6.44
2023-03-01T10:11:47.711Z,6.62
2023-03-01T10:14:29.964Z,6.84
2023-03-01T10:17:03.770Z,7.17
2023-03-01T10:19:40.416Z,6.52
2023-03-01T10:22:17.083Z,6.74
2023-03-01T10:24:47.636Z,7.26
2023-03-01T10:27:21.782Z,7.06
2023-03-01T10:29:56.287Z,7.16
2023-03-01T10:32:25.415Z,7.64
2023-03-01T10:34:55.295Z,7.76
2023-03-01T10:37:25.717Z,7.53
2023-03-01T10:40:03.647Z,7.64
2023-03-01T10:42:33.826Z,7.98
2023-03-01T10:45:16.992Z,8.30
2023-03-01T10:47:45.410Z,8.35
2023-03-01T10:50:23.132Z,8.45
2023-03-01T10:53:02.614Z,8.86
2023-03-01T10:55:36.854Z,8.08
2023-03-01T10:58:11.488Z,8.27
2023-03-01T11:00:52.081Z,8.24
2023-03-01T11:03:24.527Z,8.43
2023-03-01T11:06:00.173Z,8.64
2023-03-01T11:08:43.699Z,8.52
2023-03-01T11:11:20.809Z,8.79
2023-03-01T11:13:54.018Z,8.88
2023-03-01T11:16:35.630Z,8.90
2023-03-01T11:19:20.975Z,9.42
2023-03-01T11:22:13.332Z,9.41
2023-03-01T11:24:45.095Z,9.44
2023-03-01T11:27:22.233Z,9.76
2023-03-01T11:29:55.257Z,10.20
2023-03-01T11:32:27.160Z,9.92
2023-03-01T11:35:01.359Z,10.12
2023-03-01T11:37:37.711Z,10.07
2023-03-01T11:40:15.288Z,10.56
2023-03-01T11:43:03.419Z,10.18
2023-03-01T11:45:45.159Z,10.45
2023-03-01T11:48:47.065Z,10.93
2023-03-01T11:51:25.760Z,9.99
2023-03-01T11:54:08.418Z,10.64
2023-03-01T11:56:42.770Z,10.40
2023-03-01T11:59:34.548Z,10.30
2023-03-01T12:02:24.484Z,10.12
2023-03-01T12:05:08.359Z,9.78
2023-03-01T12:07:48.168Z,9.63
2023-03-01T12:10:27.727Z,10.11
2023-03-01T12:13:14.782Z,9.87
2023-03-01T12:16:01.080Z,10.89
2023-03-01T12:19:10.531Z,11.87
2023-03-01T12:21:57.501Z,10.84
2023-03-01T12:24:52.776Z,10.90
2023-03-01T12:27:40.145Z,10.72
2023-03-01T12:30:26.219Z,10.71
2023-03-01T12:33:07.449Z,10.85
2023-03-01T12:35:50.542Z,11.06
2023-03-01T12:38:35.713Z,11.27
2023-03-01T12:41:19.806Z,10.83
2023-03-01T12:44:03.219Z,11.42
2023-03-01T12:46:53.579Z,10.95
2023-03-01T12:49:27.703Z,10.65
2023-03-01T12:52:01.540Z,10.07
2023-03-01T12:54:32.567Z,10.47
2023-03-01T12:57:10.572Z,11.02
2023-03-01T12:59:45.604Z,11.26
2023-03-01T13:02:23.291Z,10.99
2023-03-01T13:05:06.221Z,10.80
2023-03-01T13:07:43.178Z,11.81
2023-03-01T13:10:22.094Z,11.66
2023-03-01T13:13:03.630Z,10.71
2023-03-01T13:15:36.178Z,11.31
2023-03-01T13:18:26.350Z,9.94
2023-03-01T13:20:58.168Z,10.09
2023-03-01T13:23:29.544Z,10.64
2023-03-01T13:26:14.442Z,10.35
2023-03-01T13:28:52.988Z,10.64
2023-03-01T13:32:02.488Z,10.21
2023-03-01T13:34:51.371Z,10.12
2023-03-01T13:37:31.872Z,10.31
2023-03-01T13:40:06.223Z,9.77
2023-03-01T13:42:56.159Z,9.07
2023-03-01T13:45:40.323Z,9.07
2023-03-01T13:48:13.214Z,9.23
2023-03-01T13:50:51.203Z,9.75
2023-03-01T13:53:23.434Z,9.16
2023-03-01T13:55:55.539Z,9.33
2023-03-01T13:58:26.321Z,9.64
2023-03-01T14:01:00.816Z,9.40
2023-03-01T14:03:31.130Z,9.23
2023-03-01T14:06:14.946Z,9.31
2023-03-01T14:08:45.963Z,9.21
2023-03-01T14:11:42.890Z,9.36
2023-03-01T14:14:23.205Z,9.29
2023-03-01T14:17:02.962Z,9.31
2023-03-01T14:19:34.299Z,9.19
2023-03-01T14:22:20.269Z,9.25
2023-03-01T14:24:50.804Z,9.62
2023-03-01T14:27:20.328Z,9.18
2023-03-01T14:29:57.664Z,9.06
2023-03-01T14:32:28.354Z,9.13
2023-03-01T14:34:58.012Z,9.33
2023-03-01T14:37:31.553Z,9.17
2023-03-01T14:40:01.363Z,9.24
2023-03-01T14:42:35.615Z,8.92
2023-03-01T14:45:06.025Z,8.61
2023-03-01T14:47:36.931Z,9.10
2023-03-01T14:50:10.411Z,9.10
2023-03-01T14:52:43.954Z,9.29
2023-03-01T14:55:20.204Z,9.06
2023-03-01T14:57:50.811Z,8.97
2023-03-01T15:00:22.284Z,9.14
2023-03-01T15:02:53.527Z,9.08
2023-03-01T15:05:28.531Z,9.41
2023-03-01T15:07:59.835Z,9.14
2023-03-01T15:10:30.904Z,9.08
2023-03-01T15:13:12.368Z,8.78
2023-03-01T15:15:46.425Z,8.98
2023-03-01T15:18:19.505Z,9.02
2023-03-01T15:20:49.333Z,8.97
2023-03-01T15:23:28.310Z,8.62
2023-03-01T15:26:01.510Z,8.71
2023-03-01T15:28:33.131Z,8.67
2023-03-01T15:31:05.148Z,8.71
2023-03-01T15:33:37.686Z,8.61
2023-03-01T15:36:34.110Z,8.57
2023-03-01T15:39:07.082Z,8.54
2023-03-01T15:41:48.060Z,8.33
2023-03-01T15:44:18.373Z,8.27
2023-03-01T15:46:50.273Z,8.27
2023-03-01T15:49:33.767Z,8.25
2023-03-01T15:52:02.350Z,8.12
2023-03-01T15:54:32.365Z,8.13
2023-03-01T15:57:00.753Z,7.93
2023-03-01T15:59:29.210Z,7.91
2023-03-01T16:01:57.711Z,7.58
2023-03-01T16:04:26.237Z,7.54
2023-03-01T16:06:56.160Z,7.46
2023-03-01T16:09:25.509Z,7.35
2023-03-01T16:11:55.804Z,7.20
2023-03-01T16:14:24.398Z,7.27
2023-03-01T16:16:52.869Z,7.14
2023-03-01T16:19:21.708Z,7.23
2023-03-01T16:21:50.788Z,7.18
2023-03-01T16:24:19.301Z,7.16
2023-03-01T16:26:47.777Z,7.12
2023-03-01T16:29:17.706Z,7.47
2023-03-01T16:31:46.315Z,7.12
2023-03-01T16:34:15.052Z,6.97
2023-03-01T16:36:44.797Z,6.80
2023-03-01T16:39:13.309Z,6.76
2023-03-01T16:41:41.807Z,6.66
2023-03-01T16:44:10.351Z,6.62
2023-03-01T16:46:40.184Z,6.67
2023-03-01T16:49:08.689Z,6.65
2023-03-01T16:51:37.313Z,6.54
2023-03-01T16:54:06.002Z,6.42
2023-03-01T16:56:36.650Z,6.40
2023-03-01T16:59:06.476Z,6.32
2023-03-01T17:01:38.502Z,6.30
2023-03-01T17:04:11.701Z,6.53
2023-03-01T17:06:40.377Z,6.14
2023-03-01T17:09:08.868Z,6.13
2023-03-01T17:11:37.532Z,6.02
2023-03-01T17:14:06.033Z,5.99
2023-03-01T17:16:34.575Z,5.96
2023-03-01T17:19:03.382Z,5.77
2023-03-01T17:21:33.543Z,5.76
2023-03-01T17:24:02.212Z,5.71
2023-03-01T17:26:31.385Z,5.63
2023-03-01T17:28:59.831Z,5.60
2023-03-01T17:31:28.397Z,5.53
2023-03-01T17:33:59.304Z,5.47
2023-03-01T17:36:28.993Z,5.37
2023-03-01T17:38:58.806Z,5.35
2023-03-01T17:41:27.194Z,5.28
2023-03-01T17:43:55.740Z,5.14
2023-03-01T17:46:24.597Z,5.05
2023-03-01T17:48:53.133Z,4.98
2023-03-01T17:51:21.702Z,4.97
2023-03-01T17:53:50.239Z,4.83
2023-03-01T17:56:20.119Z,4.79
2023-03-01T17:58:48.613Z,4.73
2023-03-01T18:01:19.145Z,4.68
2023-03-01T18:03:47.903Z,4.64
2023-03-01T18:06:18.898Z,4.49
2023-03-01T18:08:49.321Z,4.47
2023-03-01T18:11:18.377Z,4.35
2023-03-01T18:13:49.153Z,4.32
2023-03-01T18:16:19.258Z,4.28
2023-03-01T18:18:48.285Z,4.22
2023-03-01T18:21:17.334Z,4.12
2023-03-01T18:23:45.768Z,4.07
2023-03-01T18:26:17.715Z,4.03
2023-03-01T18:28:47.919Z,3.98
2023-03-01T18:31:21.677Z,4.02
2023-03-01T18:33:53.302Z,4.06
2023-03-01T18:36:23.958Z,4.02
2023-03-01T18:38:53.660Z,4.04
2023-03-01T18:41:22.156Z,4.01
2023-03-01T18:43:50.721Z,3.86
2023-03-01T18:46:21.060Z,3.87
2023-03-01T18:48:49.986Z,3.83
2023-03-01T18:51:19.900Z,3.76
2023-03-01T18:53:48.461Z,3.73
2023-03-01T18:56:17.008Z,3.65
2023-03-01T18:58:45.796Z,3.67
2023-03-01T19:01:16.294Z,3.65
2023-03-01T19:03:48.349Z,3.51
2023-03-01T19:06:17.030Z,3.58
2023-03-01T19:08:45.994Z,3.58
2023-03-01T19:11:17.614Z,3.55
2023-03-01T19:13:47.739Z,3.61
2023-03-01T19:16:19.476Z,3.50
2023-03-01T19:18:51.480Z,3.52
2023-03-01T19:21:25.117Z,3.52
2023-03-01T19:23:53.957Z,3.55
2023-03-01T19:26:24.608Z,3.63
2023-03-01T19:28:53.423Z,3.62
2023-03-01T19:31:25.649Z,3.58
2023-03-01T19:34:09.924Z,3.59
2023-03-01T19:36:39.572Z,3.59
2023-03-01T19:39:08.716Z,3.59
2023-03-01T19:41:37.308Z,3.56
2023-03-01T19:44:07.404Z,3.49
2023-03-01T19:46:36.365Z,3.49
2023-03-01T19:49:07.681Z,3.42
2023-03-01T19:51:38.863Z,3.37
2023-03-01T19:54:09.717Z,3.27
2023-03-01T19:56:38.683Z,3.14
2023-03-01T19:59:07.435Z,3.03
2023-03-01T20:01:37.647Z,2.95
2023-03-01T20:04:09.032Z,2.88
2023-03-01T20:06:39.321Z,2.63
2023-03-01T20:09:20.731Z,2.62
2023-03-01T20:11:50.316Z,2.59
2023-03-01T20:14:21.111Z,2.48
2023-03-01T20:16:51.881Z,2.40
2023-03-01T20:19:21.914Z,2.27
2023-03-01T20:21:50.661Z,2.20
2023-03-01T20:24:19.260Z,2.19
2023-03-01T20:26:47.773Z,2.15
2023-03-01T20:29:16.216Z,2.08
2023-03-01T20:31:44.893Z,2.06
2023-03-01T20:34:13.403Z,2.01
2023-03-01T20:36:44.274Z,1.86
2023-03-01T20:39:12.788Z,1.80
2023-03-01T20:41:42.038Z,1.93
2023-03-01T20:44:11.130Z,1.85
2023-03-01T20:46:39.902Z,1.80
2023-03-01T20:49:08.574Z,1.82
2023-03-01T20:51:37.157Z,1.76
2023-03-01T20:54:07.010Z,1.65
2023-03-01T20:56:35.860Z,1.55
2023-03-01T20:59:05.411Z,1.62
2023-03-01T21:01:33.917Z,1.70
2023-03-01T21:04:02.545Z,1.81
2023-03-01T21:06:32.075Z,1.87
2023-03-01T21:09:00.918Z,1.87
2023-03-01T21:11:30.786Z,1.75
2023-03-01T21:13:59.461Z,1.72
2023-03-01T21:16:28.405Z,1.75
2023-03-01T21:18:56.982Z,1.80
2023-03-01T21:21:25.497Z,1.76
2023-03-01T21:23:55.121Z,1.74
2023-03-01T21:26:25.344Z,1.71
2023-03-01T21:28:58.477Z,1.71
2023-03-01T21:31:29.573Z,1.60
2023-03-01T21:34:00.401Z,1.58
2023-03-01T21:36:30.737Z,1.58
2023-03-01T21:39:00.858Z,1.54
2023-03-01T21:41:31.881Z,1.56
2023-03-01T21:44:03.825Z,1.53
2023-03-01T21:46:36.569Z,1.48
2023-03-01T21:49:06.046Z,1.39
2023-03-01T21:51:36.374Z,1.43
2023-03-01T21:54:05.528Z,1.36
2023-03-01T21:56:38.799Z,1.38
2023-03-01T21:59:12.895Z,1.38
2023-03-01T22:01:41.495Z,1.38
2023-03-01T22:04:10.147Z,1.28
2023-03-01T22:06:40.978Z,1.26
2023-03-01T22:09:13.551Z,1.21
2023-03-01T22:11:44.123Z,1.24
2023-03-01T22:14:14.821Z,1.23
2023-03-01T22:16:45.516Z,1.26
2023-03-01T22:19:15.255Z,1.31
2023-03-01T22:21:45.799Z,1.28
2023-03-01T22:24:15.073Z,1.25
2023-03-01T22:26:45.616Z,1.17
2023-03-01T22:29:19.261Z,1.09
2023-03-01T22:31:47.855Z,1.18
2023-03-01T22:34:17.078Z,1.18
2023-03-01T22:36:46.944Z,1.16
2023-03-01T22:39:17.356Z,1.19
2023-03-01T22:41:47.544Z,1.17
2023-03-01T22:44:18.937Z,1.25
2023-03-01T22:46:48.446Z,1.24
2023-03-01T22:49:18.290Z,1.21
2023-03-01T22:51:48.144Z,1.18
2023-03-01T22:54:18.679Z,1.11
2023-03-01T22:56:47.604Z,1.12
2023-03-01T22:59:20.808Z,1.12
2023-03-01T23:01:49.867Z,1.06
2023-03-01T23:04:19.387Z,1.09
2023-03-01T23:06:54.781Z,1.05
2023-03-01T23:09:26.498Z,1.09
2023-03-01T23:11:56.231Z,1.05
2023-03-01T23:14:27.023Z,1.02
2023-03-01T23:16:55.563Z,1.05
2023-03-01T23:19:24.476Z,1.08
2023-03-01T23:21:54.304Z,1.02
2023-03-01T23:24:25.675Z,0.98
2023-03-01T23:26:54.316Z,1.01
2023-03-01T23:29:23.202Z,0.99
2023-03-01T23:31:53.061Z,0.88
2023-03-01T23:34:21.653Z,0.96
2023-03-01T23:36:52.925Z,0.93
2023-03-01T23:39:22.284Z,0.92
2023-03-01T23:41:51.217Z,0.93
2023-03-01T23:44:22.499Z,0.89
2023-03-01T23:46:51.456Z,0.91
2023-03-01T23:49:23.086Z,0.83
2023-03-01T23:51:52.103Z,0.82
2023-03-01T23:54:22.256Z,0.85
2023-03-01T23:56:50.732Z,0.84
2023-03-01T23:59:21.821Z,0.85
